KUCY/UCY METAR and TAF weather

Enter ICAO airport designator
Station Type Date Time Source
KUCY METAR 2019/06/27 08:00 UTC NOAA

KUCY 270800Z AUTO 00000KT 10SM FEW045 SCT065 BKN085 21/21 A3017 RMK A01


Station Type Date Time Source
KUCY Decoded METAR 2019/06/27 08:00 UTC NOAA

Station name not available
Jun 27, 2019 - 04:00 AM EDT / 2019.06.27 0800 UTC
Wind: Calm:0
Visibility: 10 mile(s):0
Sky conditions: mostly cloudy
Temperature: 69 F (21 C)
Dew Point: 69 F (21 C)
Relative Humidity: 100%
Pressure (altimeter): 30.17 in. Hg (1021 hPa)
ob: KUCY 270800Z AUTO 00000KT 10SM FEW045 SCT065 BKN085 21/21 A3017 RMK A01
cycle: 8

Station Type Date Time Source
KUCY TAF UTC NOAA

Error!

Example: see airport list